Buffalo, WY (82834)

4:04 PM MDT on May 22, 2017 (GMT -0600)
Buffalo | | Change Station

Elev 4708 ft 44.34 °N, 106.70 °W | Updated 1 second ago

Scattered Clouds
Scattered Clouds
55.9 °F
Feels Like 55.9 °F
N
6.0
Wind Variable Wind from NNW
Gusts 9.8 mph

Today
High -- | Low -- °F
--% Chance of Precip.
Yesterday
High -- | Low -- °F
Precip. -- in
Pressure 30.12 in
Visibility 10.0 miles
Clouds Scattered Clouds 4300 ft
Scattered Clouds 6000 ft
Dew Point 42 °F
Humidity 59%
Rainfall 0.13 in
Snow Depth Not available.
5:32 AM 8:35 PM
Waning Crescent, 12% visible
METAR KBYG 222153Z AUTO 32022G28KT 10SM SCT043 SCT060 14/02 A3019 RMK AO2 PK WND 35032/2108 SLP198 T01390022
Pressure 30.12 in
Visibility 10.0 miles
Clouds Scattered Clouds 4300 ft
Scattered Clouds 6000 ft
Dew Point 42 °F
Humidity 59%
Rainfall 0.13 in
Snow Depth Not available.
5:32 AM 8:35 PM
Waning Crescent, 12% visible
METAR KBYG 222153Z AUTO 32022G28KT 10SM SCT043 SCT060 14/02 A3019 RMK AO2 PK WND 35032/2108 SLP198 T01390022

Get Severe Weather Alerts

Thanks for signing up!

Be on the lookout for a verification email in your inbox.

You'll start receiving the daily forecast at 6 AM.

×

10-Day Weather Forecast

Almanac

Astronomy

May. 22, 2017 Rise Set
Actual Time
Civil Twilight
Nautical Twilight
Astronomical Twilight
Moon
Length of Visible Light
Length of Day
Tomorrow will be .
, % of the Moon is Illuminated

Today's Extremes

State Highs State Lows

Community

WunderPhotos

Category 6

Welcome to Category 6. This is the collective home for Weather Underground's featured writeups by Dr. Jeff Masters (right), Bob Henson (left), Chris Burt, and other regular contributors.

Nearby

Air Quality

  Air Quality AQ Index Pollutant
Not available.

Snow Depth

Station Depth Elevation

Earthquake Activity

City Distance Mag. Time & Date
Minimum magnitude displayed is 2.5.

Coastal Water Temperatures

Place Temperature

Stations

Nearby Weather Stations

Station Location Temp. Windchill Dew Point Humidity Wind Precip. Elev Updated Type
                   

Watches & Warnings

There are currently no watches in effect.